createdAt,value
2024-03-08T00:04:34.163Z,101033.13
2024-03-08T00:09:37.292Z,101029.13
2024-03-08T00:14:38.946Z,101031.31
2024-03-08T00:19:40.746Z,101020.47
2024-03-08T00:24:44.235Z,101028.00
2024-03-08T00:29:46.103Z,101018.97
2024-03-08T00:34:47.914Z,101007.44
2024-03-08T00:39:51.281Z,101011.88
2024-03-08T00:44:53.565Z,101005.44
2024-03-08T00:49:55.229Z,100998.72
2024-03-08T00:54:58.230Z,100998.91
2024-03-08T00:59:59.987Z,100986.88
2024-03-08T01:05:01.695Z,100975.38
2024-03-08T01:10:05.551Z,100980.72
2024-03-08T01:15:07.988Z,100969.38
2024-03-08T01:20:11.839Z,100955.19
2024-03-08T01:25:15.013Z,100952.03
2024-03-08T01:30:16.877Z,100945.06
2024-03-08T01:35:18.560Z,100901.53
2024-03-08T01:40:22.009Z,100943.38
2024-03-08T01:45:23.472Z,100935.53
2024-03-08T01:50:25.219Z,100924.06
2024-03-08T01:55:28.339Z,100915.44
2024-03-08T02:00:29.988Z,100920.06
2024-03-08T02:05:31.895Z,100917.59
2024-03-08T02:10:34.987Z,100905.25
2024-03-08T02:15:52.867Z,100901.53
2024-03-08T02:20:56.819Z,100907.34
2024-03-08T02:25:58.671Z,100901.59
2024-03-08T02:31:00.434Z,100887.69
2024-03-08T02:36:03.820Z,100899.09
2024-03-08T02:41:05.563Z,100891.66
2024-03-08T02:46:07.191Z,100882.97
2024-03-08T02:51:10.156Z,100880.06
2024-03-08T02:56:11.807Z,100877.00
2024-03-08T03:01:13.501Z,100872.19
2024-03-08T03:06:16.537Z,100790.69
2024-03-08T03:11:18.194Z,100866.56
2024-03-08T03:16:19.938Z,100866.03
2024-03-08T03:21:23.213Z,100854.31
2024-03-08T03:26:24.914Z,100852.47
2024-03-08T03:31:26.709Z,100857.94
2024-03-08T03:36:29.865Z,100850.97
2024-03-08T03:41:31.630Z,100854.91
2024-03-08T03:46:33.316Z,100847.31
2024-03-08T03:51:36.374Z,100840.31
2024-03-08T03:56:38.326Z,100841.66
2024-03-08T04:01:43.313Z,100845.63
2024-03-08T04:06:46.368Z,100840.94
2024-03-08T04:11:48.161Z,100836.25
2024-03-08T04:16:49.862Z,100837.63
2024-03-08T04:21:52.809Z,100834.38
2024-03-08T04:26:54.705Z,100833.06
2024-03-08T04:31:56.579Z,100831.66
2024-03-08T04:36:59.720Z,100810.75
2024-03-08T04:42:06.135Z,100806.09
2024-03-08T04:47:08.297Z,100821.41
2024-03-08T04:52:11.316Z,100818.22
2024-03-08T04:57:12.970Z,100807.13
2024-03-08T05:02:14.618Z,100791.81
2024-03-08T05:07:17.640Z,100796.44
2024-03-08T05:12:19.386Z,100789.78
2024-03-08T05:17:21.105Z,100801.47
2024-03-08T05:22:24.173Z,100791.47
2024-03-08T05:27:25.851Z,100790.91
2024-03-08T05:32:28.616Z,100790.91
2024-03-08T05:37:33.700Z,100789.25
2024-03-08T05:42:35.429Z,100784.25
2024-03-08T05:47:37.073Z,100781.41
2024-03-08T05:52:40.440Z,100772.34
2024-03-08T05:57:42.100Z,100766.31
2024-03-08T06:02:44.971Z,100764.66
2024-03-08T06:07:47.929Z,100768.09
2024-03-08T06:12:49.511Z,100768.22
2024-03-08T06:17:51.175Z,100727.63
2024-03-08T06:22:54.446Z,100750.47
2024-03-08T06:27:56.218Z,100757.13
2024-03-08T06:32:57.971Z,100754.44
2024-03-08T06:38:01.406Z,100748.16
2024-03-08T06:43:03.117Z,100737.06
2024-03-08T06:48:05.621Z,100750.34
2024-03-08T06:53:08.614Z,100749.28
2024-03-08T06:58:10.282Z,100749.69
2024-03-08T07:03:11.898Z,100748.97
2024-03-08T07:08:14.902Z,100744.00
2024-03-08T07:13:16.516Z,100728.41
2024-03-08T07:18:18.169Z,100728.34
2024-03-08T07:23:21.312Z,100650.03
2024-03-08T07:28:23.408Z,100721.84
2024-03-08T07:33:25.100Z,100719.91
2024-03-08T07:38:28.318Z,100711.06
2024-03-08T07:43:30.053Z,100705.00
2024-03-08T07:48:32.038Z,100700.94
2024-03-08T07:53:35.149Z,100708.75
2024-03-08T07:58:36.846Z,100676.88
2024-03-08T08:03:38.501Z,100676.28
2024-03-08T08:08:42.374Z,100672.00
2024-03-08T08:13:44.042Z,100666.75
2024-03-08T08:18:45.711Z,100661.09
2024-03-08T08:23:48.652Z,100653.66
2024-03-08T08:28:50.467Z,100653.16
2024-03-08T08:33:52.404Z,100642.75
2024-03-08T08:38:55.411Z,100626.44
2024-03-08T08:44:03.699Z,100618.25
2024-03-08T08:49:16.193Z,100599.44
2024-03-08T08:54:19.553Z,100608.06
2024-03-08T08:59:23.719Z,100607.88
2024-03-08T09:04:25.570Z,100594.81
2024-03-08T09:09:28.709Z,100593.94
2024-03-08T09:14:30.309Z,100575.72
2024-03-08T09:19:31.956Z,100578.72
2024-03-08T09:24:35.143Z,100572.31
2024-03-08T09:29:37.158Z,100559.34
2024-03-08T09:34:39.028Z,100564.53
2024-03-08T09:39:42.228Z,100558.91
2024-03-08T09:44:47.434Z,100549.91
2024-03-08T09:49:49.111Z,100550.84
2024-03-08T09:54:52.125Z,100544.34
2024-03-08T09:59:53.812Z,100532.34
2024-03-08T10:04:55.481Z,100530.22
2024-03-08T10:09:58.719Z,100540.03
2024-03-08T10:15:00.442Z,100522.69
2024-03-08T10:20:02.354Z,100514.53
2024-03-08T10:25:06.221Z,100503.19
2024-03-08T10:30:12.147Z,100521.47
2024-03-08T10:35:14.001Z,100497.13
2024-03-08T10:40:19.668Z,100438.00
2024-03-08T10:45:31.517Z,100475.91
2024-03-08T10:50:34.051Z,100469.25
2024-03-08T10:55:40.649Z,100463.06
2024-03-08T11:00:42.442Z,100442.75
2024-03-08T11:05:46.464Z,100443.00
2024-03-08T11:10:51.753Z,100429.34
2024-03-08T11:15:53.445Z,100422.75
2024-03-08T11:20:55.162Z,100435.78
2024-03-08T11:25:58.515Z,100426.38
2024-03-08T11:31:26.454Z,100406.25
2024-03-08T11:36:28.239Z,100401.41
2024-03-08T11:41:31.617Z,100388.69
2024-03-08T11:46:33.500Z,100390.66
2024-03-08T11:51:35.226Z,100397.38
2024-03-08T11:56:38.664Z,100385.00
2024-03-08T12:01:40.402Z,100375.03
2024-03-08T12:06:42.441Z,100367.66
2024-03-08T12:11:48.651Z,100362.72
2024-03-08T12:16:52.165Z,100341.50
2024-03-08T12:21:54.951Z,100334.13
2024-03-08T12:26:57.904Z,100331.88
2024-03-08T12:32:00.795Z,100277.56
2024-03-08T12:37:03.179Z,100308.03
2024-03-08T12:42:07.179Z,100312.50
2024-03-08T12:47:08.900Z,100313.09
2024-03-08T12:52:11.347Z,100304.47
2024-03-08T12:57:14.264Z,100283.72
2024-03-08T13:02:16.029Z,100284.00
2024-03-08T13:07:17.735Z,100268.25
2024-03-08T13:12:21.077Z,100282.34
2024-03-08T13:17:22.739Z,100265.69
2024-03-08T13:22:24.394Z,100267.50
2024-03-08T13:27:28.026Z,100235.25
2024-03-08T13:32:29.824Z,100230.03
2024-03-08T13:37:31.651Z,100231.00
2024-03-08T13:42:34.666Z,100213.75
2024-03-08T13:47:36.357Z,100206.88
2024-03-08T13:52:37.986Z,100195.53
2024-03-08T13:57:40.993Z,100187.06
2024-03-08T14:02:43.750Z,100181.41
2024-03-08T14:07:45.390Z,100169.50
2024-03-08T14:12:48.486Z,100162.66
2024-03-08T14:17:54.191Z,100149.56
2024-03-08T14:22:56.814Z,100136.59
2024-03-08T14:28:00.320Z,100129.31
2024-03-08T14:33:02.692Z,100134.78
2024-03-08T14:38:04.517Z,100123.75
2024-03-08T14:43:08.157Z,100118.41
2024-03-08T14:48:10.242Z,100097.03
2024-03-08T14:53:11.940Z,100084.13
2024-03-08T14:58:15.395Z,100097.56
2024-03-08T15:03:17.167Z,100079.81
2024-03-08T15:08:18.847Z,100084.63
2024-03-08T15:13:22.737Z,100080.31
2024-03-08T15:18:25.852Z,100078.63
2024-03-08T15:23:27.588Z,100089.47
2024-03-08T15:28:30.849Z,100079.00
2024-03-08T15:33:33.717Z,100077.28
2024-03-08T15:38:35.422Z,100071.28
2024-03-08T15:43:38.825Z,100062.09
2024-03-08T15:48:40.504Z,100074.22
2024-03-08T15:53:42.211Z,100070.38
2024-03-08T15:58:45.192Z,100059.63
2024-03-08T16:03:47.117Z,100059.13
2024-03-08T16:08:48.809Z,100044.38
2024-03-08T16:13:52.001Z,100039.19
2024-03-08T16:18:53.733Z,100047.66
2024-03-08T16:23:55.407Z,100040.69
2024-03-08T16:28:58.417Z,100031.63
2024-03-08T16:34:00.090Z,100035.38
2024-03-08T16:39:01.758Z,100031.84
2024-03-08T16:44:05.213Z,100035.06
2024-03-08T16:49:07.195Z,100026.09
2024-03-08T16:54:09.147Z,100020.78
2024-03-08T16:59:12.218Z,100009.72
2024-03-08T17:04:13.899Z,100012.41
2024-03-08T17:09:15.659Z,100019.00
2024-03-08T17:14:18.712Z,100014.06
2024-03-08T17:19:20.413Z,100015.50
2024-03-08T17:24:22.152Z,100027.56
2024-03-08T17:29:25.138Z,100020.94
2024-03-08T17:34:26.944Z,100017.75
2024-03-08T17:39:28.886Z,100013.56
2024-03-08T17:44:33.432Z,100021.59
2024-03-08T17:49:36.535Z,100009.94
2024-03-08T17:54:38.293Z,100012.69
2024-03-08T17:59:41.305Z,100006.56
2024-03-08T18:04:43.323Z,100004.69
2024-03-08T18:09:45.105Z,99984.78
2024-03-08T18:14:48.111Z,100000.34
2024-03-08T18:19:51.172Z,99998.78
2024-03-08T18:24:53.366Z,100001.50
2024-03-08T18:29:56.442Z,99996.31
2024-03-08T18:34:58.275Z,99991.00
2024-03-08T18:40:00.341Z,99984.66
2024-03-08T18:45:04.049Z,99979.97
2024-03-08T18:50:07.296Z,99835.25
2024-03-08T18:55:10.215Z,99973.59
2024-03-08T19:00:15.706Z,99966.38
2024-03-08T19:05:18.044Z,99871.78
2024-03-08T19:10:22.287Z,99957.13
2024-03-08T19:15:27.327Z,99960.94
2024-03-08T19:20:30.389Z,99927.50
2024-03-08T19:25:32.653Z,99941.28
2024-03-08T19:30:35.653Z,99949.38
2024-03-08T19:35:37.596Z,99950.31
2024-03-08T19:40:39.578Z,99932.78
2024-03-08T19:45:42.790Z,99933.13
2024-03-08T19:50:44.808Z,99936.94
2024-03-08T19:55:47.198Z,99928.22
2024-03-08T20:00:50.923Z,99857.22
2024-03-08T20:05:53.002Z,99915.94
2024-03-08T20:10:54.692Z,99901.53
2024-03-08T20:15:57.703Z,99899.38
2024-03-08T20:20:59.317Z,99893.00
2024-03-08T20:26:01.042Z,99894.03
2024-03-08T20:31:04.686Z,99888.50
2024-03-08T20:36:07.267Z,99869.06
2024-03-08T20:41:09.051Z,99867.78
2024-03-08T20:46:13.400Z,99855.63
2024-03-08T20:51:16.036Z,99856.00
2024-03-08T20:56:17.646Z,99857.28
2024-03-08T21:01:20.785Z,99857.88
2024-03-08T21:06:22.506Z,99857.03
2024-03-08T21:11:24.586Z,99850.94
2024-03-08T21:16:27.739Z,99842.06
2024-03-08T21:21:29.471Z,99863.09
2024-03-08T21:26:31.432Z,99863.00
2024-03-08T21:31:34.457Z,99861.00
2024-03-08T21:36:36.281Z,99854.44
2024-03-08T21:41:38.346Z,99862.19
2024-03-08T21:46:41.887Z,99873.06
2024-03-08T21:51:43.681Z,99866.53
2024-03-08T21:56:45.257Z,99853.81
2024-03-08T22:01:48.295Z,99867.13
2024-03-08T22:06:50.066Z,99870.69
2024-03-08T22:11:51.764Z,99871.09
2024-03-08T22:16:54.794Z,99869.53
2024-03-08T22:21:56.800Z,99871.59
2024-03-08T22:26:58.471Z,99873.34
2024-03-08T22:32:01.667Z,99865.28
2024-03-08T22:37:04.291Z,99828.75
2024-03-08T22:42:06.259Z,99856.34
2024-03-08T22:47:09.291Z,99857.84
2024-03-08T22:52:10.869Z,99857.91
2024-03-08T22:57:12.537Z,99851.88
2024-03-08T23:02:15.595Z,99856.44
2024-03-08T23:07:17.269Z,99845.91
2024-03-08T23:12:19.133Z,99846.38
2024-03-08T23:17:22.079Z,99841.41
2024-03-08T23:22:23.815Z,99829.97
2024-03-08T23:27:25.433Z,99838.47
2024-03-08T23:32:28.427Z,99829.69
2024-03-08T23:37:30.264Z,99825.13
2024-03-08T23:42:32.269Z,99830.03
2024-03-08T23:47:35.449Z,99820.03
2024-03-08T23:52:36.984Z,99825.13
2024-03-08T23:57:38.930Z,99824.91
